Cottonville, North Carolina
Current Conditions -  °F | °C
As of 11:55 PM on Monday 22 Dec 2014 (Local Time) from KVUJ Reporting Station
Light Rain Light Rain  
Wind Chill:   Ceiling: 300
Heat Index:   Visibility: 7mi
Dew Point:   Wind: 3mph
Humidity: 100%   Direction: 50°NE
Pressure: 30.07"   Gusts: NA
Location:  35.2152°N, 80.1663°W
Report Text: KVUJ 230455Z AUTO 05003KT 7SM -RA OVC003 03/03 A3007 RMK AO2 P0002 T00280028 400710026
Loading
Personal Weather Stations






























Interactive Weather Map New forecast layout! Learn more

10-Day Weather Forecast

Advertisements
Track Severe Weather on mobile